BERRYESSA (BER)

Elevation: 456' · PUTAH CR basin · Operator: US Bureau of Reclamation

Provisional data, subject to change.
Query executed Sunday at 2:04:09   clock

Select a sensor type for a plot of data.
Note: Reservoir Flows are daily averages.

Earlier

Date RES ELE    STORAGE    OUTFLOW    INFLOW    PPT INC   
 FEET   AF   CFS   CFS   INCHES  
04/25/2015 410.15 1031966 428 266 0.27
04/26/2015 410.04 1030220 437 -349 0.00
04/27/2015 409.98 1029269 465 54 0.00
04/28/2015 409.92 1028318 474 89 0.00
04/29/2015 409.86 1027367 482 113 0.00
04/30/2015 409.81 1026575 445 140 0.00
05/01/2015 409.75 1025626 463 114 0.00
05/02/2015 409.68 1024518 444 3 0.00
05/03/2015 409.61 1023410 423 -19 0.00
05/04/2015 409.54 1022304 424 -22 0.00
05/05/2015 409.47 1021197 427 -42 0.00
05/06/2015 409.42 1020408 480 166 0.00
05/07/2015 409.31 1018671 520 -278 0.00
05/08/2015 409.26 1017882 519 205 0.00
05/09/2015 409.18 1016620 486 -77 0.00
05/10/2015 409.10 1015359 476 -76 0.00
05/11/2015 409.04 1014413 457 64 0.00
05/12/2015 408.96 1013153 456 -73 0.00
05/13/2015 408.89 1012051 484 45 0.00
05/14/2015 408.85 1011422 495 278 0.00
05/15/2015 408.76 1010006 516 -181 1.01
05/16/2015 408.68 1008748 534 0 0.00
05/17/2015 408.61 1007648 545 57 0.00
05/18/2015 -- -- -- -- --
05/19/2015 -- -- -- -- --
05/20/2015 -- -- -- -- --
05/21/2015 -- -- -- -- --
05/22/2015 -- -- -- -- --
05/23/2015 -- -- -- -- --
05/24/2015 -- -- -- -- --

Later | Latest

Warning! This data is preliminary and subject to revision.

Show BER Map | Plot BER Data | 1 Month BER Data | Real-Time BER Data | BER Info